Time;durP1;ratioP1;P1;durP2;ratioP2;P2;SDS_P1;SDS_P2;PMS_P1;PMS_P2;Temp;Humidity;BMP_temperature;BMP_pressure;BME280_temperature;BME280_humidity;BME280_pressure;Samples;Min_cycle;Max_cycle;Signal;HPM_P1;HPM_P2
2023/03/03 00:01:40;;;;;;;75.53;56.97;;;;;;;;;;5026619;28;20449;-73
2023/03/03 00:04:06;;;;;;;74.35;60.13;;;;;;;;;;5036485;28;20024;-74
2023/03/03 00:06:31;;;;;;;78.00;58.83;;;;;;;;;;5036554;28;20040;-72
2023/03/03 00:08:56;;;;;;;71.72;56.97;;;;;;;;;;5038101;28;20414;-72
2023/03/03 00:11:22;;;;;;;69.93;59.33;;;;;;;;;;5038453;28;20141;-73
2023/03/03 00:13:51;;;;;;;69.50;55.95;;;;;;;;;;5030301;28;20440;-74
2023/03/03 00:16:35;;;;;;;70.07;56.97;;;;;;;;;;5027645;28;20432;-73
2023/03/03 00:19:01;;;;;;;72.63;58.05;;;;;;;;;;5038894;28;20040;-74
2023/03/03 00:21:28;;;;;;;74.30;57.83;;;;;;;;;;5027995;28;20071;-73
2023/03/03 00:23:54;;;;;;;80.15;60.10;;;;;;;;;;5040548;28;20051;-74
2023/03/03 00:26:30;;;;;;;74.75;55.58;;;;;;;;;;5040982;28;20505;-72
2023/03/03 00:29:01;;;;;;;73.07;55.03;;;;;;;;;;5034743;28;20056;-73
2023/03/03 00:31:33;;;;;;;71.00;55.55;;;;;;;;;;5023562;28;20033;-73
2023/03/03 00:34:22;;;;;;;71.38;56.42;;;;;;;;;;5025176;28;20024;-73
2023/03/03 00:36:48;;;;;;;77.75;58.15;;;;;;;;;;5025666;28;20072;-73
2023/03/03 00:39:32;;;;;;;71.47;53.92;;;;;;;;;;5038505;28;20020;-76
2023/03/03 00:41:59;;;;;;;72.28;55.15;;;;;;;;;;5027872;28;20033;-73
2023/03/03 00:44:41;;;;;;;72.18;57.10;;;;;;;;;;5034206;28;20029;-73
2023/03/03 00:47:21;;;;;;;80.35;60.53;;;;;;;;;;5031502;28;20096;-73
2023/03/03 00:49:47;;;;;;;88.25;67.35;;;;;;;;;;5038319;28;20352;-71
2023/03/03 00:52:16;;;;;;;79.07;60.70;;;;;;;;;;5037852;28;20025;-72
2023/03/03 00:54:41;;;;;;;75.18;57.35;;;;;;;;;;5037299;28;20040;-72
2023/03/03 00:57:07;;;;;;;71.85;55.78;;;;;;;;;;5039396;28;20351;-72
2023/03/03 00:59:32;;;;;;;75.63;58.38;;;;;;;;;;5037187;28;20036;-72
2023/03/03 01:01:57;;;;;;;72.78;56.00;;;;;;;;;;5032991;28;20396;-72
2023/03/03 01:04:23;;;;;;;69.50;53.35;;;;;;;;;;5028587;28;20041;-76
2023/03/03 01:06:48;;;;;;;75.28;58.40;;;;;;;;;;5029559;28;20033;-73
2023/03/03 01:09:14;;;;;;;69.28;56.22;;;;;;;;;;5036793;28;20478;-76
2023/03/03 01:11:39;;;;;;;70.15;55.45;;;;;;;;;;5038009;28;20444;-73
2023/03/03 01:14:04;;;;;;;71.00;55.72;;;;;;;;;;5038818;28;20033;-73
2023/03/03 01:16:30;;;;;;;70.22;53.67;;;;;;;;;;5027287;28;20853;-71
2023/03/03 01:18:55;;;;;;;72.22;53.13;;;;;;;;;;5032437;28;20387;-72
2023/03/03 01:21:20;;;;;;;68.55;51.97;;;;;;;;;;5033353;28;20031;-72
2023/03/03 01:23:46;;;;;;;67.63;52.25;;;;;;;;;;5035635;28;20364;-73
2023/03/03 01:26:11;;;;;;;67.57;52.45;;;;;;;;;;5023565;28;20029;-79
2023/03/03 01:28:36;;;;;;;68.13;50.90;;;;;;;;;;5037788;28;20099;-72
2023/03/03 01:31:03;;;;;;;67.88;53.38;;;;;;;;;;5036090;28;21026;-76
2023/03/03 01:33:28;;;;;;;69.75;54.22;;;;;;;;;;5038100;28;20813;-73
2023/03/03 01:35:54;;;;;;;69.22;53.03;;;;;;;;;;5037076;28;20573;-71
2023/03/03 01:38:19;;;;;;;69.22;55.60;;;;;;;;;;5037511;28;20459;-72
2023/03/03 01:40:51;;;;;;;67.82;53.38;;;;;;;;;;5038492;28;20035;-72
2023/03/03 01:43:16;;;;;;;66.43;50.90;;;;;;;;;;5038236;28;20029;-71
2023/03/03 01:46:01;;;;;;;65.90;51.08;;;;;;;;;;5028052;28;20087;-72
2023/03/03 01:48:41;;;;;;;64.57;49.58;;;;;;;;;;5039418;28;20040;-75
2023/03/03 01:51:15;;;;;;;71.43;53.92;;;;;;;;;;5038067;28;20087;-72
2023/03/03 01:53:42;;;;;;;67.07;52.03;;;;;;;;;;5036663;28;20112;-73
2023/03/03 01:56:08;;;;;;;70.93;52.17;;;;;;;;;;5038904;28;20027;-72
2023/03/03 01:58:37;;;;;;;67.63;51.90;;;;;;;;;;5035609;28;20088;-75
2023/03/03 02:01:04;;;;;;;60.78;48.17;;;;;;;;;;5027568;28;20326;-72
2023/03/03 02:03:30;;;;;;;61.20;47.67;;;;;;;;;;5034150;28;20116;-76
2023/03/03 02:05:57;;;;;;;68.07;52.00;;;;;;;;;;5038908;28;20111;-72
2023/03/03 02:08:27;;;;;;;67.55;53.25;;;;;;;;;;5028652;28;20118;-72
2023/03/03 02:10:53;;;;;;;67.68;53.45;;;;;;;;;;5034283;28;20104;-74
2023/03/03 02:13:19;;;;;;;66.53;51.03;;;;;;;;;;5038414;28;20041;-71
2023/03/03 02:15:45;;;;;;;73.25;57.17;;;;;;;;;;5024018;28;20031;-72
2023/03/03 02:18:12;;;;;;;74.03;55.10;;;;;;;;;;5037375;28;20026;-72
2023/03/03 02:20:48;;;;;;;83.75;62.20;;;;;;;;;;5038415;28;20024;-75
2023/03/03 02:23:21;;;;;;;70.40;54.70;;;;;;;;;;5034107;28;20033;-77
2023/03/03 02:25:50;;;;;;;68.00;51.63;;;;;;;;;;5036003;28;20044;-73
2023/03/03 02:28:15;;;;;;;74.05;55.15;;;;;;;;;;5035486;28;20024;-72
2023/03/03 02:30:40;;;;;;;72.68;54.63;;;;;;;;;;5031090;28;20036;-76
2023/03/03 02:33:06;;;;;;;67.40;52.28;;;;;;;;;;5025722;28;20043;-72
2023/03/03 02:35:33;;;;;;;74.53;55.42;;;;;;;;;;5036068;28;20032;-72
2023/03/03 02:38:14;;;;;;;65.38;48.70;;;;;;;;;;5037535;28;20036;-72
2023/03/03 02:40:43;;;;;;;64.05;48.00;;;;;;;;;;5039166;28;20025;-72
2023/03/03 02:43:09;;;;;;;58.25;46.72;;;;;;;;;;5036182;28;20372;-72
2023/03/03 02:45:39;;;;;;;57.67;44.65;;;;;;;;;;5036861;28;20053;-73
2023/03/03 02:48:04;;;;;;;55.38;44.65;;;;;;;;;;5023145;28;20083;-72
2023/03/03 02:50:30;;;;;;;58.78;47.58;;;;;;;;;;5027563;28;20029;-73
2023/03/03 02:52:55;;;;;;;57.90;46.17;;;;;;;;;;5034778;28;20033;-72
2023/03/03 02:55:20;;;;;;;59.10;46.28;;;;;;;;;;5033546;28;20441;-72
2023/03/03 02:57:46;;;;;;;55.38;44.53;;;;;;;;;;5035929;28;20033;-72
2023/03/03 03:00:11;;;;;;;55.03;43.40;;;;;;;;;;5035472;28;20060;-72
2023/03/03 03:02:36;;;;;;;57.33;46.17;;;;;;;;;;5034040;28;20048;-72
2023/03/03 03:05:02;;;;;;;53.65;43.63;;;;;;;;;;5035716;28;20149;-71
2023/03/03 03:07:27;;;;;;;58.78;46.47;;;;;;;;;;5038213;28;20021;-72
2023/03/03 03:09:53;;;;;;;59.65;46.80;;;;;;;;;;5038141;28;20441;-74
2023/03/03 03:12:20;;;;;;;55.28;45.67;;;;;;;;;;5035979;28;20029;-74
2023/03/03 03:14:45;;;;;;;57.10;46.83;;;;;;;;;;5034090;28;20037;-72
2023/03/03 03:17:11;;;;;;;55.28;46.97;;;;;;;;;;5035605;28;20036;-71
2023/03/03 03:19:36;;;;;;;55.15;45.90;;;;;;;;;;5037240;28;20021;-78
2023/03/03 03:22:02;;;;;;;58.42;46.58;;;;;;;;;;5035897;28;20032;-73
2023/03/03 03:24:27;;;;;;;52.40;41.42;;;;;;;;;;5035675;28;20037;-71
2023/03/03 03:26:53;;;;;;;50.03;43.55;;;;;;;;;;5034410;28;20029;-75
2023/03/03 03:29:18;;;;;;;52.28;42.47;;;;;;;;;;5035879;28;20033;-75
2023/03/03 03:31:43;;;;;;;54.78;43.10;;;;;;;;;;5033695;28;20087;-72
2023/03/03 03:34:09;;;;;;;48.65;39.60;;;;;;;;;;5027931;28;20029;-72
2023/03/03 03:36:34;;;;;;;60.65;48.05;;;;;;;;;;5037783;28;20406;-72
2023/03/03 03:39:01;;;;;;;60.55;47.42;;;;;;;;;;5036934;28;20029;-72
2023/03/03 03:41:27;;;;;;;55.85;47.67;;;;;;;;;;5035785;28;20283;-75
2023/03/03 03:43:52;;;;;;;64.60;47.10;;;;;;;;;;5034931;28;20082;-72
2023/03/03 03:46:17;;;;;;;61.90;47.92;;;;;;;;;;5029642;28;20063;-73
2023/03/03 03:48:43;;;;;;;61.80;48.13;;;;;;;;;;5040627;28;20033;-74
2023/03/03 03:51:09;;;;;;;69.65;54.03;;;;;;;;;;5039941;28;20120;-73
2023/03/03 03:53:35;;;;;;;69.97;56.25;;;;;;;;;;5039272;28;20040;-73
2023/03/03 03:56:00;;;;;;;70.72;54.38;;;;;;;;;;5039690;28;20040;-72
2023/03/03 03:58:25;;;;;;;75.20;56.53;;;;;;;;;;5033908;28;20018;-72
2023/03/03 04:00:50;;;;;;;72.68;53.75;;;;;;;;;;5032899;28;20914;-75
2023/03/03 04:03:16;;;;;;;64.78;50.30;;;;;;;;;;5042181;28;20086;-72
2023/03/03 04:05:41;;;;;;;68.50;52.60;;;;;;;;;;5041282;28;20028;-79
2023/03/03 04:08:07;;;;;;;65.75;50.40;;;;;;;;;;5038579;28;20100;-74
2023/03/03 04:10:32;;;;;;;74.53;58.53;;;;;;;;;;5039820;28;20044;-72
2023/03/03 04:12:58;;;;;;;81.47;60.67;;;;;;;;;;5040558;28;20029;-72
2023/03/03 04:15:23;;;;;;;76.97;57.08;;;;;;;;;;5037904;28;20340;-71
2023/03/03 04:17:49;;;;;;;74.35;56.97;;;;;;;;;;5028760;28;20460;-71
2023/03/03 04:20:14;;;;;;;73.28;56.40;;;;;;;;;;5036103;28;20444;-71
2023/03/03 04:22:40;;;;;;;74.53;56.03;;;;;;;;;;5039896;28;20029;-71
2023/03/03 04:25:06;;;;;;;72.18;54.78;;;;;;;;;;5038574;28;20420;-76
2023/03/03 04:27:32;;;;;;;63.63;49.85;;;;;;;;;;5039596;28;20099;-71
2023/03/03 04:29:57;;;;;;;66.68;51.80;;;;;;;;;;5040203;28;20115;-71
2023/03/03 04:32:22;;;;;;;66.45;51.67;;;;;;;;;;5028611;28;20033;-71
2023/03/03 04:34:48;;;;;;;74.57;54.08;;;;;;;;;;5039800;28;20032;-71
2023/03/03 04:37:13;;;;;;;69.78;52.80;;;;;;;;;;5026181;28;20354;-76
2023/03/03 04:39:38;;;;;;;77.10;56.03;;;;;;;;;;5025226;28;20021;-71
2023/03/03 04:42:04;;;;;;;110.88;77.43;;;;;;;;;;5025666;28;20184;-73
2023/03/03 04:44:29;;;;;;;104.97;78.20;;;;;;;;;;5027656;28;20422;-71
2023/03/03 04:46:54;;;;;;;115.53;81.95;;;;;;;;;;5027475;28;20434;-75
2023/03/03 04:49:19;;;;;;;89.45;66.82;;;;;;;;;;5025943;28;20032;-74
2023/03/03 04:51:45;;;;;;;81.60;63.38;;;;;;;;;;5025860;28;20072;-73
2023/03/03 04:54:10;;;;;;;78.10;59.78;;;;;;;;;;5031867;28;20094;-76
2023/03/03 04:56:35;;;;;;;86.85;65.13;;;;;;;;;;5029143;28;20083;-75
2023/03/03 04:59:01;;;;;;;84.10;63.55;;;;;;;;;;5039067;28;20040;-72
2023/03/03 05:01:26;;;;;;;79.80;62.40;;;;;;;;;;5039763;28;20051;-71
2023/03/03 05:03:51;;;;;;;74.43;56.58;;;;;;;;;;5028219;28;20488;-72
2023/03/03 05:06:17;;;;;;;86.72;64.78;;;;;;;;;;5025759;28;20398;-72
2023/03/03 05:08:43;;;;;;;89.00;65.50;;;;;;;;;;5039590;28;20017;-73
2023/03/03 05:11:08;;;;;;;76.80;58.03;;;;;;;;;;5037452;28;20116;-71
2023/03/03 05:13:34;;;;;;;77.10;56.80;;;;;;;;;;5033228;28;20103;-72
2023/03/03 05:15:59;;;;;;;80.28;60.45;;;;;;;;;;5031002;28;20428;-73
2023/03/03 05:18:24;;;;;;;78.30;58.28;;;;;;;;;;5034122;28;20060;-76
2023/03/03 05:20:50;;;;;;;141.27;96.90;;;;;;;;;;5029109;28;20069;-74
2023/03/03 05:23:16;;;;;;;249.73;159.98;;;;;;;;;;5035859;28;20113;-72
2023/03/03 05:25:41;;;;;;;120.38;85.78;;;;;;;;;;5036374;28;20021;-70
2023/03/03 05:28:07;;;;;;;125.95;92.13;;;;;;;;;;5036382;28;20032;-72
2023/03/03 05:30:32;;;;;;;103.80;80.00;;;;;;;;;;5039260;28;20036;-79
2023/03/03 05:32:58;;;;;;;104.05;75.55;;;;;;;;;;5035194;28;20033;-75
2023/03/03 05:35:23;;;;;;;79.85;63.22;;;;;;;;;;5038792;28;20033;-77
2023/03/03 05:37:49;;;;;;;100.00;75.30;;;;;;;;;;5027611;28;20403;-76
2023/03/03 05:40:14;;;;;;;109.75;81.38;;;;;;;;;;5028983;28;20494;-73
2023/03/03 05:42:39;;;;;;;90.97;71.65;;;;;;;;;;5035465;28;20033;-73
2023/03/03 05:45:05;;;;;;;91.68;72.93;;;;;;;;;;5027405;28;20088;-72
2023/03/03 05:47:30;;;;;;;91.35;72.30;;;;;;;;;;5028301;28;20068;-72
2023/03/03 05:49:56;;;;;;;96.07;77.75;;;;;;;;;;5021684;28;20449;-73
2023/03/03 05:52:23;;;;;;;91.55;67.53;;;;;;;;;;5023031;28;20021;-75
2023/03/03 05:54:48;;;;;;;95.82;74.70;;;;;;;;;;5023896;28;20444;-73
2023/03/03 05:57:14;;;;;;;87.88;64.50;;;;;;;;;;5023367;28;20043;-77
2023/03/03 05:59:39;;;;;;;90.30;69.78;;;;;;;;;;5022303;28;20035;-73
2023/03/03 06:02:04;;;;;;;95.30;71.65;;;;;;;;;;5028813;28;20368;-71
2023/03/03 06:04:30;;;;;;;102.85;80.20;;;;;;;;;;5036450;28;20032;-76
2023/03/03 06:06:55;;;;;;;120.47;90.93;;;;;;;;;;5034160;28;20464;-72
2023/03/03 06:09:20;;;;;;;119.47;94.75;;;;;;;;;;5038408;28;20082;-71
2023/03/03 06:11:46;;;;;;;129.52;100.68;;;;;;;;;;5036760;28;20135;-73
2023/03/03 06:14:11;;;;;;;138.07;98.53;;;;;;;;;;5034349;28;20072;-75
2023/03/03 06:16:36;;;;;;;100.60;74.03;;;;;;;;;;5038182;28;20033;-74
2023/03/03 06:19:02;;;;;;;94.35;71.07;;;;;;;;;;5038262;28;20034;-74
2023/03/03 06:21:27;;;;;;;144.65;98.43;;;;;;;;;;5029028;28;20075;-77
2023/03/03 06:23:53;;;;;;;114.32;82.95;;;;;;;;;;5024155;28;20047;-72
2023/03/03 06:26:18;;;;;;;129.30;88.78;;;;;;;;;;5025431;28;20507;-72
2023/03/03 06:28:43;;;;;;;80.80;60.38;;;;;;;;;;5035536;28;20035;-72
2023/03/03 06:31:08;;;;;;;81.80;61.28;;;;;;;;;;5035355;28;20021;-73
2023/03/03 06:33:34;;;;;;;76.30;60.35;;;;;;;;;;5037804;28;20079;-75
2023/03/03 06:35:59;;;;;;;90.00;68.75;;;;;;;;;;5036293;28;20035;-72
2023/03/03 06:38:24;;;;;;;110.78;80.60;;;;;;;;;;5037176;28;20502;-75
2023/03/03 06:40:50;;;;;;;101.20;75.50;;;;;;;;;;5033403;28;20025;-72
2023/03/03 06:43:15;;;;;;;120.57;83.75;;;;;;;;;;5023815;28;20037;-72
2023/03/03 06:45:40;;;;;;;94.72;71.93;;;;;;;;;;5023750;28;20122;-74
2023/03/03 06:48:06;;;;;;;95.65;74.68;;;;;;;;;;5034913;28;20440;-73
2023/03/03 06:50:31;;;;;;;127.38;88.88;;;;;;;;;;5036431;28;20021;-75
2023/03/03 06:53:00;;;;;;;149.77;106.95;;;;;;;;;;5034206;28;21114;-71
2023/03/03 06:55:26;;;;;;;142.65;98.07;;;;;;;;;;5038761;28;20017;-75
2023/03/03 06:57:54;;;;;;;114.93;83.32;;;;;;;;;;5034646;28;20032;-71
2023/03/03 07:00:20;;;;;;;102.80;73.30;;;;;;;;;;5036154;28;20029;-71
2023/03/03 07:02:46;;;;;;;109.85;77.28;;;;;;;;;;5034689;28;20058;-73
2023/03/03 07:05:15;;;;;;;98.32;71.28;;;;;;;;;;5038329;28;20028;-74
2023/03/03 07:07:41;;;;;;;214.02;133.77;;;;;;;;;;5035049;28;20017;-72
2023/03/03 07:10:17;;;;;;;119.65;81.28;;;;;;;;;;5037452;28;20391;-71
2023/03/03 07:12:42;;;;;;;99.25;71.90;;;;;;;;;;5032864;28;20344;-71
2023/03/03 07:15:15;;;;;;;124.75;86.38;;;;;;;;;;5030876;28;20029;-76
2023/03/03 07:17:44;;;;;;;97.78;73.70;;;;;;;;;;5035512;28;20017;-73
2023/03/03 07:20:20;;;;;;;123.45;81.40;;;;;;;;;;5035015;28;20052;-74
2023/03/03 07:22:46;;;;;;;206.48;125.85;;;;;;;;;;5034778;28;20033;-71
2023/03/03 07:25:27;;;;;;;88.85;66.63;;;;;;;;;;5035168;28;20394;-74
2023/03/03 07:27:55;;;;;;;85.32;62.40;;;;;;;;;;5036678;28;20032;-70
2023/03/03 07:30:27;;;;;;;80.28;61.72;;;;;;;;;;5035786;28;20029;-76
2023/03/03 07:32:55;;;;;;;81.90;64.18;;;;;;;;;;5035289;28;20040;-72
2023/03/03 07:35:23;;;;;;;113.60;76.35;;;;;;;;;;5035266;28;20029;-77
2023/03/03 07:37:48;;;;;;;133.75;89.07;;;;;;;;;;5033234;28;20034;-73
2023/03/03 07:40:32;;;;;;;120.82;88.78;;;;;;;;;;5037014;28;20460;-71
2023/03/03 07:42:57;;;;;;;102.13;76.50;;;;;;;;;;5037232;28;20443;-72
2023/03/03 07:45:31;;;;;;;73.15;59.00;;;;;;;;;;5033411;28;20056;-72
2023/03/03 07:48:16;;;;;;;112.30;84.57;;;;;;;;;;5036047;28;20618;-71
2023/03/03 07:50:42;;;;;;;108.90;79.72;;;;;;;;;;5035296;28;20057;-70
2023/03/03 07:53:20;;;;;;;138.02;91.72;;;;;;;;;;5034387;28;20116;-72
2023/03/03 07:55:46;;;;;;;80.85;62.95;;;;;;;;;;5034447;28;20380;-71
2023/03/03 07:58:13;;;;;;;84.28;65.63;;;;;;;;;;5036129;28;20021;-71
2023/03/03 08:00:38;;;;;;;77.25;60.78;;;;;;;;;;5035177;28;20049;-73
2023/03/03 08:03:09;;;;;;;95.68;75.55;;;;;;;;;;5033884;28;20071;-71
2023/03/03 08:05:34;;;;;;;119.00;91.05;;;;;;;;;;5036126;28;20029;-71
2023/03/03 08:08:09;;;;;;;134.95;93.47;;;;;;;;;;5033208;28;20102;-71
2023/03/03 08:10:42;;;;;;;78.90;60.55;;;;;;;;;;5037001;28;20032;-73
2023/03/03 08:13:30;;;;;;;78.22;65.00;;;;;;;;;;5037747;28;20061;-72
2023/03/03 08:16:01;;;;;;;119.55;80.07;;;;;;;;;;5034097;28;20052;-71
2023/03/03 08:18:34;;;;;;;71.95;55.67;;;;;;;;;;5035349;28;20033;-71
2023/03/03 08:21:01;;;;;;;105.40;89.90;;;;;;;;;;5034389;28;20025;-73
2023/03/03 08:23:27;;;;;;;87.45;70.95;;;;;;;;;;5030570;28;20064;-71
2023/03/03 08:25:52;;;;;;;70.28;55.47;;;;;;;;;;5021913;28;20057;-72
2023/03/03 08:28:18;;;;;;;68.40;54.80;;;;;;;;;;5021731;28;20459;-71
2023/03/03 08:30:44;;;;;;;98.38;79.30;;;;;;;;;;5021727;28;20355;-72
2023/03/03 08:33:10;;;;;;;190.55;161.10;;;;;;;;;;5024892;28;20031;-72
2023/03/03 08:35:35;;;;;;;139.32;110.05;;;;;;;;;;5024675;28;20105;-72
2023/03/03 08:38:01;;;;;;;180.10;137.77;;;;;;;;;;5023917;28;20024;-73
2023/03/03 08:40:26;;;;;;;131.77;103.43;;;;;;;;;;5025625;28;20033;-71
2023/03/03 08:42:53;;;;;;;70.80;56.00;;;;;;;;;;5025277;28;20360;-73
2023/03/03 08:45:18;;;;;;;72.05;63.13;;;;;;;;;;5023886;28;20110;-74
2023/03/03 08:47:43;;;;;;;76.25;60.08;;;;;;;;;;5025036;28;20029;-74
2023/03/03 08:50:09;;;;;;;65.40;51.13;;;;;;;;;;5024217;28;20411;-72
2023/03/03 08:52:35;;;;;;;103.05;66.50;;;;;;;;;;5039016;28;20435;-72
2023/03/03 08:55:00;;;;;;;75.63;52.53;;;;;;;;;;5026940;28;20029;-71
2023/03/03 08:57:25;;;;;;;69.05;50.83;;;;;;;;;;5025187;28;20138;-71
2023/03/03 08:59:51;;;;;;;62.55;50.35;;;;;;;;;;5024877;28;20033;-72
2023/03/03 09:02:16;;;;;;;57.35;47.75;;;;;;;;;;5025368;28;20116;-71
2023/03/03 09:04:42;;;;;;;68.05;54.50;;;;;;;;;;5023376;28;20452;-71
2023/03/03 09:07:07;;;;;;;51.88;40.55;;;;;;;;;;5025280;28;20049;-72
2023/03/03 09:09:32;;;;;;;84.20;52.13;;;;;;;;;;5026088;28;20036;-73
2023/03/03 09:12:13;;;;;;;78.85;62.78;;;;;;;;;;5025678;28;20035;-73
2023/03/03 09:14:39;;;;;;;79.63;62.05;;;;;;;;;;5021962;28;20522;-72
2023/03/03 09:17:15;;;;;;;107.95;67.30;;;;;;;;;;5022056;28;20017;-74
2023/03/03 09:19:41;;;;;;;44.00;36.30;;;;;;;;;;5025876;28;20032;-71
2023/03/03 09:22:21;;;;;;;56.42;45.50;;;;;;;;;;5023002;28;20025;-72
2023/03/03 09:24:47;;;;;;;48.33;41.83;;;;;;;;;;5024421;28;20646;-72
2023/03/03 09:27:17;;;;;;;36.85;33.03;;;;;;;;;;5025454;28;20026;-73
2023/03/03 09:29:42;;;;;;;31.20;27.80;;;;;;;;;;5023192;28;20039;-72
2023/03/03 09:32:14;;;;;;;50.47;42.00;;;;;;;;;;5024856;28;20352;-73
2023/03/03 09:34:40;;;;;;;48.70;42.78;;;;;;;;;;5024479;28;20527;-76
2023/03/03 09:37:25;;;;;;;30.95;27.65;;;;;;;;;;5024744;28;20037;-72
2023/03/03 09:39:52;;;;;;;43.55;39.08;;;;;;;;;;5024975;28;20041;-74
2023/03/03 09:42:36;;;;;;;32.70;29.30;;;;;;;;;;5022584;28;20445;-71
2023/03/03 09:45:10;;;;;;;32.78;29.38;;;;;;;;;;5023313;28;20528;-73
2023/03/03 09:48:14;;;;;;;42.88;35.88;;;;;;;;;;5024253;28;20021;-73
2023/03/03 09:50:44;;;;;;;44.10;37.45;;;;;;;;;;5022120;28;20033;-76
2023/03/03 09:53:28;;;;;;;53.67;47.47;;;;;;;;;;5022226;28;20049;-73
2023/03/03 09:56:08;;;;;;;48.40;43.03;;;;;;;;;;5020629;28;20025;-73
2023/03/03 09:58:33;;;;;;;64.20;57.15;;;;;;;;;;5021219;28;20053;-71
2023/03/03 10:01:09;;;;;;;61.58;54.92;;;;;;;;;;5005059;28;20127;-71
2023/03/03 10:03:45;;;;;;;62.47;52.25;;;;;;;;;;5021217;28;20189;-71
2023/03/03 10:06:16;;;;;;;57.83;51.25;;;;;;;;;;5018416;28;20147;-74
2023/03/03 10:08:44;;;;;;;77.05;68.88;;;;;;;;;;5021634;28;21070;-72
2023/03/03 10:11:09;;;;;;;70.40;58.92;;;;;;;;;;5021265;28;20040;-74
2023/03/03 10:13:47;;;;;;;93.55;75.03;;;;;;;;;;5021207;28;20033;-71
2023/03/03 10:16:22;;;;;;;88.00;73.85;;;;;;;;;;5022978;28;20032;-72
2023/03/03 10:18:50;;;;;;;91.30;78.38;;;;;;;;;;5020561;28;20041;-72
2023/03/03 10:21:21;;;;;;;66.75;58.67;;;;;;;;;;5023416;28;20043;-76
2023/03/03 10:23:56;;;;;;;59.33;52.95;;;;;;;;;;5021716;28;20064;-72
2023/03/03 10:26:44;;;;;;;67.57;57.38;;;;;;;;;;5021573;28;20364;-74
2023/03/03 10:29:15;;;;;;;78.80;67.65;;;;;;;;;;5023888;28;20052;-72
2023/03/03 10:31:55;;;;;;;65.90;57.85;;;;;;;;;;5023743;28;20036;-71
2023/03/03 10:34:29;;;;;;;72.38;64.60;;;;;;;;;;5023379;28;20044;-72
2023/03/03 10:36:55;;;;;;;57.20;51.03;;;;;;;;;;5024291;28;20033;-71
2023/03/03 10:39:38;;;;;;;52.92;47.40;;;;;;;;;;5023180;28;20021;-75
2023/03/03 10:42:16;;;;;;;59.80;51.00;;;;;;;;;;5022999;28;20029;-73
2023/03/03 10:44:52;;;;;;;52.70;47.13;;;;;;;;;;5019643;28;20140;-76
2023/03/03 10:47:36;;;;;;;56.00;49.90;;;;;;;;;;5021594;28;20128;-75
2023/03/03 10:50:14;;;;;;;54.95;47.47;;;;;;;;;;5022696;28;20029;-76
2023/03/03 10:52:46;;;;;;;52.63;46.45;;;;;;;;;;5021098;28;20037;-72
2023/03/03 10:55:23;;;;;;;46.30;41.22;;;;;;;;;;5022739;28;20085;-73
2023/03/03 10:57:51;;;;;;;50.72;45.30;;;;;;;;;;5024340;28;20139;-73
2023/03/03 11:00:16;;;;;;;56.75;49.55;;;;;;;;;;5023287;28;20047;-72
2023/03/03 11:02:45;;;;;;;47.08;39.67;;;;;;;;;;5023636;28;20445;-74
2023/03/03 11:05:40;;;;;;;42.33;37.85;;;;;;;;;;5022940;28;19925;-73
2023/03/03 11:08:08;;;;;;;47.58;41.88;;;;;;;;;;5033065;28;20476;-72
2023/03/03 11:10:46;;;;;;;49.00;43.80;;;;;;;;;;5033577;28;20064;-73
2023/03/03 11:13:17;;;;;;;48.58;42.38;;;;;;;;;;5035229;28;20405;-78
2023/03/03 11:15:42;;;;;;;49.03;43.75;;;;;;;;;;5023156;28;20900;-72
2023/03/03 11:18:19;;;;;;;58.47;52.42;;;;;;;;;;5019946;28;20077;-78
2023/03/03 11:20:44;;;;;;;56.20;50.33;;;;;;;;;;5021649;28;20452;-72
2023/03/03 11:23:34;;;;;;;56.83;50.70;;;;;;;;;;5020713;28;20037;-72
2023/03/03 11:25:59;;;;;;;;;;;;;;;;;;5028802;28;20453;-72
2023/03/03 11:28:24;;;;;;;48.47;43.23;;;;;;;;;;5024249;28;19928;-74
2023/03/03 11:30:53;;;;;;;56.67;49.50;;;;;;;;;;5019927;28;20033;-74
2023/03/03 11:33:18;;;;;;;143.77;120.00;;;;;;;;;;5021329;28;20550;-72
2023/03/03 11:35:47;;;;;;;62.53;55.00;;;;;;;;;;5020847;28;20120;-73
2023/03/03 11:38:12;;;;;;;50.42;45.13;;;;;;;;;;5020473;28;20047;-77
2023/03/03 11:40:46;;;;;;;76.95;66.32;;;;;;;;;;5021046;28;20101;-73
2023/03/03 11:43:25;;;;;;;70.65;62.10;;;;;;;;;;5029249;28;20167;-72
2023/03/03 11:45:55;;;;;;;53.97;48.10;;;;;;;;;;5034632;28;20372;-73
2023/03/03 11:48:34;;;;;;;87.15;72.47;;;;;;;;;;5032809;28;20025;-76
2023/03/03 11:51:06;;;;;;;71.75;61.42;;;;;;;;;;5035769;28;20025;-73
2023/03/03 11:53:52;;;;;;;53.28;47.20;;;;;;;;;;5037379;28;20037;-75
2023/03/03 11:56:17;;;;;;;81.28;72.38;;;;;;;;;;5036181;28;20455;-76
2023/03/03 11:58:49;;;;;;;61.78;55.20;;;;;;;;;;5037667;28;20120;-74
2023/03/03 12:01:41;;;;;;;67.70;59.15;;;;;;;;;;5032821;28;20039;-72
2023/03/03 12:04:14;;;;;;;81.63;72.70;;;;;;;;;;5033792;28;20452;-74
2023/03/03 12:07:01;;;;;;;77.80;68.53;;;;;;;;;;5037127;28;20079;-72
2023/03/03 12:09:29;;;;;;;103.85;91.25;;;;;;;;;;5039485;28;20345;-79
2023/03/03 12:12:03;;;;;;;96.30;85.80;;;;;;;;;;5038138;28;20025;-72
2023/03/03 12:14:52;;;;;;;80.68;69.13;;;;;;;;;;5034384;28;20036;-73
2023/03/03 12:17:36;;;;;;;90.28;79.55;;;;;;;;;;5032693;28;20037;-76
2023/03/03 12:20:19;;;;;;;128.13;108.18;;;;;;;;;;5040332;28;20448;-75
2023/03/03 12:23:03;;;;;;;83.47;72.97;;;;;;;;;;5040072;28;20090;-73
2023/03/03 12:25:44;;;;;;;103.30;84.15;;;;;;;;;;5036817;28;20029;-74
2023/03/03 12:28:12;;;;;;;110.15;93.78;;;;;;;;;;5038202;28;20033;-79
2023/03/03 12:30:56;;;;;;;110.07;95.20;;;;;;;;;;5039666;28;20025;-74
2023/03/03 12:33:45;;;;;;;112.03;100.00;;;;;;;;;;5039568;28;20048;-73
2023/03/03 12:36:28;;;;;;;115.60;101.63;;;;;;;;;;5034066;28;20029;-73
2023/03/03 12:39:10;;;;;;;349.90;228.55;;;;;;;;;;5037496;28;20431;-72
2023/03/03 12:41:44;;;;;;;439.38;270.25;;;;;;;;;;5035540;28;20065;-72
2023/03/03 12:44:33;;;;;;;291.25;172.30;;;;;;;;;;5037906;28;20072;-73
2023/03/03 12:47:01;;;;;;;166.57;119.10;;;;;;;;;;5038884;28;20140;-75
2023/03/03 12:49:52;;;;;;;115.60;97.68;;;;;;;;;;5038284;28;20020;-71
2023/03/03 12:52:36;;;;;;;121.25;105.60;;;;;;;;;;5035701;28;20083;-72
2023/03/03 12:55:10;;;;;;;111.00;93.88;;;;;;;;;;5038406;28;20040;-73
2023/03/03 12:57:53;;;;;;;126.57;107.68;;;;;;;;;;5039792;28;20028;-73
2023/03/03 13:00:25;;;;;;;130.05;107.90;;;;;;;;;;5037699;28;20029;-76
2023/03/03 13:03:02;;;;;;;115.65;98.95;;;;;;;;;;5037760;28;20119;-75
2023/03/03 13:05:34;;;;;;;160.73;134.02;;;;;;;;;;5039819;28;20427;-74
2023/03/03 13:08:05;;;;;;;159.70;141.15;;;;;;;;;;5037658;28;20424;-76
2023/03/03 13:10:37;;;;;;;161.25;142.52;;;;;;;;;;5039728;28;20383;-75
2023/03/03 13:13:05;;;;;;;146.50;128.30;;;;;;;;;;5038157;28;20420;-73
2023/03/03 13:15:34;;;;;;;126.30;110.75;;;;;;;;;;5036038;28;20022;-77
2023/03/03 13:18:08;;;;;;;124.23;105.57;;;;;;;;;;5038196;28;20052;-75
2023/03/03 13:20:40;;;;;;;120.05;105.20;;;;;;;;;;5035553;28;20118;-74
2023/03/03 13:23:08;;;;;;;118.20;105.13;;;;;;;;;;5037974;28;20029;-73
2023/03/03 13:25:54;;;;;;;121.47;108.30;;;;;;;;;;5037459;28;20463;-73
2023/03/03 13:28:22;;;;;;;103.20;91.72;;;;;;;;;;5038297;28;20024;-73
2023/03/03 13:30:49;;;;;;;99.05;86.20;;;;;;;;;;5025092;28;20372;-73
2023/03/03 13:33:26;;;;;;;97.97;87.22;;;;;;;;;;5026890;28;20127;-73
2023/03/03 13:35:59;;;;;;;96.53;85.93;;;;;;;;;;5034979;28;20117;-75
2023/03/03 13:38:37;;;;;;;93.53;81.10;;;;;;;;;;5038608;28;20025;-73
2023/03/03 13:41:02;;;;;;;95.50;85.13;;;;;;;;;;5027322;28;20039;-73
2023/03/03 13:43:29;;;;;;;98.30;87.15;;;;;;;;;;5026920;28;20037;-73
2023/03/03 13:46:05;;;;;;;101.65;90.57;;;;;;;;;;5029357;28;20046;-74
2023/03/03 13:48:36;;;;;;;100.25;87.97;;;;;;;;;;5039225;28;20025;-74
2023/03/03 13:51:07;;;;;;;130.18;107.30;;;;;;;;;;5036046;28;20043;-74
2023/03/03 13:53:33;;;;;;;134.45;109.75;;;;;;;;;;5035169;28;20653;-75
2023/03/03 13:56:16;;;;;;;114.30;98.63;;;;;;;;;;5026873;28;21160;-73
2023/03/03 13:58:54;;;;;;;126.47;107.32;;;;;;;;;;5024935;28;20028;-73
2023/03/03 14:01:46;;;;;;;99.43;88.43;;;;;;;;;;5035994;28;20037;-76
2023/03/03 14:04:34;;;;;;;78.90;70.20;;;;;;;;;;5031455;28;20049;-76
2023/03/03 14:07:05;;;;;;;76.30;66.50;;;;;;;;;;5034421;28;20040;-75
2023/03/03 14:09:54;;;;;;;100.20;84.40;;;;;;;;;;5037474;28;20068;-73
2023/03/03 14:12:45;;;;;;;88.28;69.47;;;;;;;;;;5037359;28;20035;-76
2023/03/03 14:15:16;;;;;;;75.78;62.88;;;;;;;;;;5036336;28;20083;-76
2023/03/03 14:17:48;;;;;;;92.13;75.97;;;;;;;;;;5035923;28;21060;-74
2023/03/03 14:20:13;;;;;;;99.95;78.25;;;;;;;;;;5035176;28;20402;-74
2023/03/03 14:22:53;;;;;;;90.28;77.65;;;;;;;;;;5036624;28;20056;-74
2023/03/03 14:25:19;;;;;;;80.93;64.55;;;;;;;;;;5037192;28;20432;-74
2023/03/03 14:27:47;;;;;;;151.95;118.85;;;;;;;;;;5033981;28;20086;-76
2023/03/03 14:30:21;;;;;;;135.07;99.88;;;;;;;;;;5023417;28;20025;-74